Time;durP1;ratioP1;P1;durP2;ratioP2;P2;SDS_P1;SDS_P2;PMS_P1;PMS_P2;Temp;Humidity;BMP_temperature;BMP_pressure;BME280_temperature;BME280_humidity;BME280_pressure;Samples;Min_cycle;Max_cycle;Signal;HPM_P1;HPM_P2
2021/12/31 00:02:00;;;;;;;;;;;12.60;97.80;;;;;;5002388;28;19905;-71
2021/12/31 00:04:26;;;;;;;;;;;12.60;97.90;;;;;;5002827;28;19913;-71
2021/12/31 00:06:52;;;;;;;;;;;12.60;98.00;;;;;;5003391;28;20231;-70
2021/12/31 00:09:17;;;;;;;;;;;12.60;98.00;;;;;;5003377;28;19992;-70
2021/12/31 00:11:43;;;;;;;;;;;12.60;97.90;;;;;;5003192;28;19906;-69
2021/12/31 00:14:09;;;;;;;;;;;12.60;98.00;;;;;;5003129;28;19909;-69
2021/12/31 00:16:34;;;;;;;;;;;12.60;98.10;;;;;;5003304;28;20104;-70
2021/12/31 00:19:00;;;;;;;;;;;12.60;98.10;;;;;;5003301;28;19929;-70
2021/12/31 00:21:32;;;;;;;;;;;12.50;98.00;;;;;;5003260;28;20255;-70
2021/12/31 00:23:57;;;;;;;;;;;12.60;98.10;;;;;;5003259;28;19906;-69
2021/12/31 00:26:23;;;;;;;;;;;12.60;97.90;;;;;;5002755;28;19944;-69
2021/12/31 00:28:49;;;;;;;;;;;12.60;98.10;;;;;;5003290;28;20108;-70
2021/12/31 00:31:14;;;;;;;;;;;12.60;98.00;;;;;;5003224;28;19909;-70
2021/12/31 00:33:40;;;;;;;;;;;12.50;98.00;;;;;;5003047;28;19964;-69
2021/12/31 00:36:06;;;;;;;;;;;12.60;98.00;;;;;;5002948;28;20204;-69
2021/12/31 00:38:31;;;;;;;;;;;12.60;98.00;;;;;;5003323;28;19936;-69
2021/12/31 00:40:57;;;;;;;;;;;12.60;98.00;;;;;;5003007;28;19906;-69
2021/12/31 00:43:23;;;;;;;;;;;12.50;98.10;;;;;;5002341;28;20109;-69
2021/12/31 00:45:48;;;;;;;;;;;12.50;98.00;;;;;;5002772;28;19916;-70
2021/12/31 00:48:14;;;;;;;;;;;12.50;97.90;;;;;;5002168;28;20205;-70
2021/12/31 00:50:40;;;;;;;;;;;12.50;97.90;;;;;;5003050;28;19906;-69
2021/12/31 00:53:06;;;;;;;;;;;12.50;98.00;;;;;;5002965;28;19906;-70
2021/12/31 00:55:31;;;;;;;;;;;12.50;98.10;;;;;;5002854;28;19952;-70
2021/12/31 00:57:57;;;;;;;;;;;12.50;98.00;;;;;;5001965;28;20109;-70
2021/12/31 01:00:23;;;;;;;;;;;12.50;97.80;;;;;;5002977;28;19967;-70
2021/12/31 01:02:48;;;;;;;;;;;12.50;97.80;;;;;;5002508;28;19986;-70
2021/12/31 01:05:14;;;;;;;;;;;12.50;97.80;;;;;;5004295;28;20059;-70
2021/12/31 01:07:40;;;;;;;;;;;12.50;97.90;;;;;;5006251;28;19905;-70
2021/12/31 01:10:07;;;;;;;;;;;12.60;97.70;;;;;;5006524;28;19906;-70
2021/12/31 01:12:33;;;;;;;;;;;12.60;97.80;;;;;;5006429;28;19912;-70
2021/12/31 01:15:05;;;;;;;;;;;12.50;97.80;;;;;;5015038;23;20123;-70
2021/12/31 01:17:47;;;;;;;;;;;12.50;97.80;;;;;;4986751;28;19906;-70
2021/12/31 01:20:14;;;;;;;;;;;12.50;97.80;;;;;;4985639;28;20169;-70
2021/12/31 01:22:40;;;;;;;;;;;12.50;97.80;;;;;;4986025;28;20005;-70
2021/12/31 01:25:06;;;;;;;;;;;12.50;97.70;;;;;;4985270;28;20260;-70
2021/12/31 01:27:32;;;;;;;;;;;12.50;97.70;;;;;;4986736;28;19906;-70
2021/12/31 01:29:58;;;;;;;;;;;12.50;97.70;;;;;;4984280;28;19929;-70
2021/12/31 01:32:24;;;;;;;;;;;12.50;97.80;;;;;;4986633;28;19906;-70
2021/12/31 01:34:50;;;;;;;;;;;12.50;97.70;;;;;;4986134;28;19906;-70
2021/12/31 01:37:15;;;;;;;;;;;12.50;97.70;;;;;;4986540;28;19974;-70
2021/12/31 01:39:42;;;;;;;;;;;12.50;97.70;;;;;;4986505;28;19969;-70
2021/12/31 01:42:10;;;;;;;;;;;12.50;97.80;;;;;;4986121;28;19914;-70
2021/12/31 01:44:55;;;;;;;;;;;12.50;97.70;;;;;;4968673;28;20018;-70
2021/12/31 01:47:22;;;;;;;;;;;12.50;97.80;;;;;;4986202;28;19917;-70
2021/12/31 01:49:58;;;;;;;;;;;12.50;97.70;;;;;;4985105;28;19913;-70
2021/12/31 01:52:23;;;;;;;;;;;12.50;97.60;;;;;;4986293;28;19922;-70
2021/12/31 01:54:49;;;;;;;;;;;12.50;97.50;;;;;;4985910;28;20167;-70
2021/12/31 01:57:15;;;;;;;;;;;12.50;97.50;;;;;;4986147;28;19940;-69
2021/12/31 01:59:40;;;;;;;;;;;12.50;97.60;;;;;;4985792;28;19906;-70
2021/12/31 02:02:07;;;;;;;;;;;12.50;97.60;;;;;;4986018;28;20105;-70
2021/12/31 02:04:33;;;;;;;;;;;12.50;97.60;;;;;;4984684;28;19910;-70
2021/12/31 02:06:59;;;;;;;;;;;12.40;97.60;;;;;;4984981;28;19912;-70
2021/12/31 02:09:25;;;;;;;;;;;12.40;97.50;;;;;;4984859;28;19905;-70
2021/12/31 02:11:53;;;;;;;;;;;12.50;97.50;;;;;;4985922;28;20140;-70
2021/12/31 02:14:20;;;;;;;;;;;12.50;97.60;;;;;;4985153;28;19925;-70
2021/12/31 02:16:46;;;;;;;;;;;12.40;97.50;;;;;;4984069;28;19913;-70
2021/12/31 02:19:12;;;;;;;;;;;12.40;97.60;;;;;;4985810;28;19977;-70
2021/12/31 02:21:41;;;;;;;;;;;12.40;97.50;;;;;;4985806;28;20383;-70
2021/12/31 02:24:07;;;;;;;;;;;12.40;97.60;;;;;;4968289;28;20108;-69
2021/12/31 02:26:33;;;;;;;;;;;12.40;97.50;;;;;;4985534;28;19912;-69
2021/12/31 02:28:58;;;;;;;;;;;12.40;97.50;;;;;;4985617;28;20021;-70
2021/12/31 02:31:24;;;;;;;;;;;12.40;97.40;;;;;;4985355;28;19910;-70
2021/12/31 02:33:50;;;;;;;;;;;12.40;97.50;;;;;;4985388;28;20113;-70
2021/12/31 02:36:16;;;;;;;;;;;12.40;97.50;;;;;;4985226;28;19969;-70
2021/12/31 02:38:43;;;;;;;;;;;12.40;97.60;;;;;;4984513;28;19906;-70
2021/12/31 02:41:09;;;;;;;;;;;12.30;97.70;;;;;;4968442;28;19938;-70
2021/12/31 02:43:35;;;;;;;;;;;12.30;97.50;;;;;;4984272;28;20149;-70
2021/12/31 02:46:01;;;;;;;;;;;12.30;97.60;;;;;;4983756;28;19910;-70
2021/12/31 02:48:27;;;;;;;;;;;12.30;97.70;;;;;;4984151;28;19910;-70
2021/12/31 02:50:54;;;;;;;;;;;12.30;97.70;;;;;;4984046;28;19957;-70
2021/12/31 02:53:23;;;;;;;;;;;12.30;97.70;;;;;;4984172;28;19906;-71
2021/12/31 02:55:50;;;;;;;;;;;12.20;97.70;;;;;;4983737;28;20205;-71
2021/12/31 02:58:15;;;;;;;;;;;12.20;97.70;;;;;;4983940;28;20108;-70
2021/12/31 03:00:41;;;;;;;;;;;12.20;97.70;;;;;;4984772;28;19906;-70
2021/12/31 03:03:07;;;;;;;;;;;12.10;97.80;;;;;;4983873;28;19906;-70
2021/12/31 03:05:33;;;;;;;;;;;12.10;97.90;;;;;;4984539;28;19925;-71
2021/12/31 03:07:59;;;;;;;;;;;12.00;98.00;;;;;;4983826;28;19906;-71
2021/12/31 03:10:26;;;;;;;;;;;11.90;98.00;;;;;;4984793;28;19913;-70
2021/12/31 03:12:51;;;;;;;;;;;11.80;98.30;;;;;;4983667;28;19933;-70
2021/12/31 03:15:17;;;;;;;;;;;11.80;98.50;;;;;;4984049;28;19917;-70
2021/12/31 03:17:43;;;;;;;;;;;11.70;98.70;;;;;;4984803;28;19906;-71
2021/12/31 03:20:12;;;;;;;;;;;11.70;98.70;;;;;;4983686;28;19906;-70
2021/12/31 03:22:39;;;;;;;;;;;11.60;98.80;;;;;;4977400;28;20018;-70
2021/12/31 03:25:05;;;;;;;;;;;11.70;98.70;;;;;;4974530;28;19920;-70
2021/12/31 03:27:32;;;;;;;;;;;11.70;98.70;;;;;;4974219;28;19910;-69
2021/12/31 03:29:57;;;;;;;;;;;11.70;98.60;;;;;;4975409;28;19960;-70
2021/12/31 03:32:23;;;;;;;;;;;11.70;98.60;;;;;;5005792;28;19910;-70
2021/12/31 03:34:49;;;;;;;;;;;11.80;98.70;;;;;;4971378;28;20000;-69
2021/12/31 03:37:15;;;;;;;;;;;11.70;98.80;;;;;;4963985;28;20165;-70
2021/12/31 03:39:40;;;;;;;;;;;11.70;98.80;;;;;;4964985;28;19906;-69
2021/12/31 03:42:06;;;;;;;;;;;11.70;98.80;;;;;;4970268;28;19910;-69
2021/12/31 03:44:32;;;;;;;;;;;11.70;98.90;;;;;;4983994;28;19910;-69
2021/12/31 03:46:57;;;;;;;;;;;11.70;98.80;;;;;;4984426;28;19986;-69
2021/12/31 03:49:23;;;;;;;;;;;11.80;98.70;;;;;;4984454;28;19929;-69
2021/12/31 03:51:49;;;;;;;;;;;11.70;98.70;;;;;;4983324;28;19940;-71
2021/12/31 03:54:14;;;;;;;;;;;11.70;98.80;;;;;;4984486;28;19906;-70
2021/12/31 03:56:40;;;;;;;;;;;11.70;98.80;;;;;;4984374;28;20194;-69
2021/12/31 03:59:06;;;;;;;;;;;11.70;98.90;;;;;;4983976;28;19906;-70
2021/12/31 04:01:31;;;;;;;;;;;11.70;98.70;;;;;;4984285;28;19972;-67
2021/12/31 04:03:57;;;;;;;;;;;11.70;98.80;;;;;;4984201;28;19906;-70
2021/12/31 04:06:23;;;;;;;;;;;11.70;98.70;;;;;;4984120;28;19906;-70
2021/12/31 04:08:50;;;;;;;;;;;11.70;98.80;;;;;;4984338;28;20002;-70
2021/12/31 04:11:16;;;;;;;;;;;11.60;98.70;;;;;;4983331;28;19906;-69
2021/12/31 04:13:42;;;;;;;;;;;11.70;98.70;;;;;;4982969;28;19906;-70
2021/12/31 04:16:07;;;;;;;;;;;11.60;98.80;;;;;;4982805;28;19917;-69
2021/12/31 04:18:33;;;;;;;;;;;11.70;98.70;;;;;;4984237;28;19906;-69
2021/12/31 04:21:00;;;;;;;;;;;11.70;98.50;;;;;;4984283;28;19906;-68
2021/12/31 04:23:33;;;;;;;;;;;11.70;98.60;;;;;;4984058;28;19949;-68
2021/12/31 04:25:58;;;;;;;;;;;11.70;98.40;;;;;;4983701;28;19914;-68
2021/12/31 04:28:25;;;;;;;;;;;11.70;98.50;;;;;;4982794;28;19945;-69
2021/12/31 04:30:51;;;;;;;;;;;11.70;98.50;;;;;;4982958;28;20216;-69
2021/12/31 04:33:17;;;;;;;;;;;11.70;98.60;;;;;;4983969;28;19906;-69
2021/12/31 04:35:42;;;;;;;;;;;11.70;98.50;;;;;;4983673;28;19933;-69
2021/12/31 04:38:08;;;;;;;;;;;11.70;98.60;;;;;;4983848;28;20167;-68
2021/12/31 04:40:34;;;;;;;;;;;11.70;98.60;;;;;;4986216;28;20216;-69
2021/12/31 04:42:59;;;;;;;;;;;11.70;98.60;;;;;;4986999;28;19905;-69
2021/12/31 04:45:25;;;;;;;;;;;11.70;98.70;;;;;;4987169;28;20264;-68
2021/12/31 04:47:51;;;;;;;;;;;11.70;98.60;;;;;;4987618;28;20217;-69
2021/12/31 04:50:17;;;;;;;;;;;11.60;98.60;;;;;;4987548;28;19905;-69
2021/12/31 04:52:43;;;;;;;;;;;11.60;98.60;;;;;;4985635;28;19906;-69
2021/12/31 04:55:09;;;;;;;;;;;11.60;98.60;;;;;;4986121;28;19980;-69
2021/12/31 04:57:35;;;;;;;;;;;11.60;98.60;;;;;;4986380;28;19906;-69
2021/12/31 05:00:00;;;;;;;;;;;11.60;98.50;;;;;;4987361;28;19929;-68
2021/12/31 05:02:26;;;;;;;;;;;11.60;98.60;;;;;;4987265;28;19913;-69
2021/12/31 05:04:51;;;;;;;;;;;11.70;98.30;;;;;;4986870;28;19922;-68
2021/12/31 05:07:17;;;;;;;;;;;11.70;98.50;;;;;;4985949;28;19905;-69
2021/12/31 05:09:43;;;;;;;;;;;11.60;98.40;;;;;;4987190;28;20017;-69
2021/12/31 05:12:14;;;;;;;;;;;11.70;98.40;;;;;;4987186;28;19906;-69
2021/12/31 05:14:41;;;;;;;;;;;11.70;98.30;;;;;;4986691;28;20105;-69
2021/12/31 05:17:06;;;;;;;;;;;11.70;98.30;;;;;;4987127;28;20140;-69
2021/12/31 05:19:32;;;;;;;;;;;11.60;98.40;;;;;;4987085;28;19914;-69
2021/12/31 05:21:58;;;;;;;;;;;11.70;98.30;;;;;;4986903;28;20189;-70
2021/12/31 05:24:23;;;;;;;;;;;11.70;98.20;;;;;;4985346;28;20018;-70
2021/12/31 05:26:49;;;;;;;;;;;11.70;98.20;;;;;;4987257;28;19906;-70
2021/12/31 05:29:15;;;;;;;;;;;11.80;98.10;;;;;;4987285;28;20141;-69
2021/12/31 05:31:40;;;;;;;;;;;11.80;97.90;;;;;;4986091;28;20029;-69
2021/12/31 05:34:06;;;;;;;;;;;11.80;98.00;;;;;;4986672;28;19906;-69
2021/12/31 05:36:32;;;;;;;;;;;11.70;98.20;;;;;;4986510;28;19910;-70
2021/12/31 05:38:57;;;;;;;;;;;11.70;98.10;;;;;;4986493;28;19913;-69
2021/12/31 05:41:23;;;;;;;;;;;11.70;98.00;;;;;;4986616;28;19941;-70
2021/12/31 05:43:49;;;;;;;;;;;11.60;98.30;;;;;;4984889;28;19906;-70
2021/12/31 05:46:14;;;;;;;;;;;11.60;98.50;;;;;;4986214;28;20117;-69
2021/12/31 05:48:40;;;;;;;;;;;11.60;98.40;;;;;;4986398;28;19933;-70
2021/12/31 05:51:05;;;;;;;;;;;11.60;98.40;;;;;;4985134;28;19968;-69
2021/12/31 05:53:31;;;;;;;;;;;11.50;98.60;;;;;;4986184;28;19906;-69
2021/12/31 05:55:57;;;;;;;;;;;11.50;98.50;;;;;;4986003;28;19913;-69
2021/12/31 05:58:23;;;;;;;;;;;11.50;98.50;;;;;;4986412;28;19968;-69
2021/12/31 06:00:49;;;;;;;;;;;11.50;98.40;;;;;;4986386;28;19918;-69
2021/12/31 06:03:15;;;;;;;;;;;11.50;98.30;;;;;;4986219;28;19944;-69
2021/12/31 06:05:41;;;;;;;;;;;11.60;98.20;;;;;;4985678;28;19957;-69
2021/12/31 06:08:06;;;;;;;;;;;11.60;98.20;;;;;;4985831;28;20248;-69
2021/12/31 06:10:32;;;;;;;;;;;11.60;98.10;;;;;;4986017;28;19906;-69
2021/12/31 06:12:59;;;;;;;;;;;11.60;97.90;;;;;;4984898;28;20200;-70
2021/12/31 06:15:27;;;;;;;;;;;11.60;97.90;;;;;;4984526;28;19916;-69
2021/12/31 06:17:52;;;;;;;;;;;11.60;97.90;;;;;;4984887;28;20116;-69
2021/12/31 06:20:18;;;;;;;;;;;11.60;97.90;;;;;;4985825;28;19910;-69
2021/12/31 06:22:44;;;;;;;;;;;11.50;98.00;;;;;;4985587;28;19941;-69
2021/12/31 06:25:10;;;;;;;;;;;11.40;98.10;;;;;;4985360;28;20231;-70
2021/12/31 06:27:35;;;;;;;;;;;11.40;98.10;;;;;;4985793;28;20153;-70
2021/12/31 06:30:03;;;;;;;;;;;11.30;98.10;;;;;;4985709;28;19938;-70
2021/12/31 06:32:29;;;;;;;;;;;11.20;98.10;;;;;;4985638;28;19906;-70
2021/12/31 06:34:54;;;;;;;;;;;11.20;98.20;;;;;;4985227;28;19982;-70
2021/12/31 06:37:20;;;;;;;;;;;11.10;98.20;;;;;;4985553;28;19905;-69
2021/12/31 06:39:46;;;;;;;;;;;11.10;98.30;;;;;;4985375;28;20252;-70
2021/12/31 06:42:12;;;;;;;;;;;11.10;98.40;;;;;;4985475;28;19945;-69
2021/12/31 06:44:38;;;;;;;;;;;11.00;98.50;;;;;;4984213;28;19949;-69
2021/12/31 06:47:05;;;;;;;;;;;11.00;98.60;;;;;;4984339;28;19913;-69
2021/12/31 06:49:31;;;;;;;;;;;10.90;98.70;;;;;;4985148;28;19937;-69
2021/12/31 06:51:57;;;;;;;;;;;10.80;98.80;;;;;;4984277;28;20204;-69
2021/12/31 06:54:22;;;;;;;;;;;10.80;98.80;;;;;;4984226;28;19976;-69
2021/12/31 06:56:48;;;;;;;;;;;10.80;98.90;;;;;;4984989;28;19969;-69
2021/12/31 06:59:14;;;;;;;;;;;10.80;98.90;;;;;;4985090;28;19988;-69
2021/12/31 07:01:39;;;;;;;;;;;10.70;98.90;;;;;;4985011;28;19906;-69
2021/12/31 07:04:05;;;;;;;;;;;10.70;98.90;;;;;;4984519;28;20250;-69
2021/12/31 07:06:31;;;;;;;;;;;10.80;98.90;;;;;;4984993;28;19917;-69
2021/12/31 07:08:56;;;;;;;;;;;10.70;98.80;;;;;;4984862;28;19906;-69
2021/12/31 07:11:22;;;;;;;;;;;10.70;98.70;;;;;;4984763;28;19984;-69
2021/12/31 07:13:51;;;;;;;;;;;10.70;98.80;;;;;;4984716;28;19969;-70
2021/12/31 07:16:17;;;;;;;;;;;10.60;98.90;;;;;;5036478;23;20193;-70
2021/12/31 07:18:43;;;;;;;;;;;10.60;99.30;;;;;;5023686;28;20104;-70
2021/12/31 07:21:09;;;;;;;;;;;10.50;99.20;;;;;;5023648;28;19916;-69
2021/12/31 07:23:34;;;;;;;;;;;10.60;99.20;;;;;;5023665;28;19909;-70
2021/12/31 07:26:00;;;;;;;;;;;10.50;99.30;;;;;;5007933;28;20179;-69
2021/12/31 07:28:27;;;;;;;;;;;10.50;99.30;;;;;;5004067;28;19952;-69
2021/12/31 07:30:53;;;;;;;;;;;10.50;99.30;;;;;;5003702;28;20201;-70
2021/12/31 07:33:21;;;;;;;;;;;10.60;99.30;;;;;;5003949;28;19952;-70
2021/12/31 07:35:47;;;;;;;;;;;10.70;99.20;;;;;;5002494;28;19913;-70
2021/12/31 07:38:20;;;;;;;;;;;10.70;99.40;;;;;;4985690;28;19910;-70
2021/12/31 07:40:46;;;;;;;;;;;10.70;99.30;;;;;;5001381;28;19941;-70
2021/12/31 07:43:12;;;;;;;;;;;10.80;99.20;;;;;;5002036;28;20169;-69
2021/12/31 07:45:38;;;;;;;;;;;10.90;99.20;;;;;;5002896;28;19917;-69
2021/12/31 07:48:04;;;;;;;;;;;10.90;99.00;;;;;;5003508;28;19905;-69
2021/12/31 07:50:30;;;;;;;;;;;11.00;98.90;;;;;;5003705;28;19905;-69
2021/12/31 07:52:56;;;;;;;;;;;11.10;98.70;;;;;;5003539;28;19906;-70
2021/12/31 07:55:22;;;;;;;;;;;11.10;98.60;;;;;;5002128;28;19952;-71
2021/12/31 07:57:47;;;;;;;;;;;11.20;98.40;;;;;;5001573;28;19909;-75
2021/12/31 08:00:13;;;;;;;;;;;11.20;98.40;;;;;;4985878;28;19948;-74
2021/12/31 08:02:39;;;;;;;;;;;11.20;98.30;;;;;;4997488;28;20086;-70
2021/12/31 08:05:05;;;;;;;;;;;11.30;98.30;;;;;;5001888;28;19909;-71
2021/12/31 08:07:31;;;;;;;;;;;11.20;98.40;;;;;;5001764;28;19921;-70
2021/12/31 08:09:57;;;;;;;;;;;11.30;98.30;;;;;;5003031;28;19905;-68
2021/12/31 08:12:22;;;;;;;;;;;11.30;98.20;;;;;;5002084;28;19906;-70
2021/12/31 08:14:48;;;;;;;;;;;11.30;98.20;;;;;;5002872;28;19909;-66
2021/12/31 08:17:14;;;;;;;;;;;11.40;98.20;;;;;;5006115;28;20200;-67
2021/12/31 08:19:41;;;;;;;;;;;11.40;98.00;;;;;;5007349;28;19912;-68
2021/12/31 08:22:07;;;;;;;;;;;11.40;98.00;;;;;;5007065;28;19909;-68
2021/12/31 08:24:33;;;;;;;;;;;11.50;97.80;;;;;;5005983;28;20127;-68
2021/12/31 08:26:58;;;;;;;;;;;11.50;97.60;;;;;;5006769;28;20160;-68
2021/12/31 08:29:24;;;;;;;;;;;11.50;97.50;;;;;;5006939;28;19960;-68
2021/12/31 08:31:50;;;;;;;;;;;11.60;97.30;;;;;;5006974;28;19905;-68
2021/12/31 08:34:16;;;;;;;;;;;11.60;97.20;;;;;;5005691;28;19905;-68
2021/12/31 08:36:41;;;;;;;;;;;11.60;97.30;;;;;;5005740;28;19909;-68
2021/12/31 08:39:07;;;;;;;;;;;11.60;97.30;;;;;;5006977;28;19948;-69
2021/12/31 08:41:34;;;;;;;;;;;11.70;97.00;;;;;;5006588;28;19906;-69
2021/12/31 08:44:00;;;;;;;;;;;11.80;97.00;;;;;;5004563;28;19906;-71
2021/12/31 08:46:25;;;;;;;;;;;11.80;97.00;;;;;;5006480;28;19937;-67
2021/12/31 08:48:51;;;;;;;;;;;11.90;96.60;;;;;;5006456;28;19926;-67
2021/12/31 08:51:17;;;;;;;;;;;11.90;96.30;;;;;;5006412;28;19913;-68
2021/12/31 08:53:42;;;;;;;;;;;11.90;96.40;;;;;;5006545;28;19906;-68
2021/12/31 08:56:08;;;;;;;;;;;11.80;96.40;;;;;;5004950;28;20105;-67
2021/12/31 08:58:34;;;;;;;;;;;11.70;96.40;;;;;;5005719;28;19913;-67
2021/12/31 09:01:00;;;;;;;;;;;11.70;96.50;;;;;;5006569;28;19945;-67
2021/12/31 09:03:25;;;;;;;;;;;11.70;96.80;;;;;;5004900;28;20105;-67
2021/12/31 09:05:51;;;;;;;;;;;11.70;96.50;;;;;;5004761;28;19914;-67
2021/12/31 09:08:17;;;;;;;;;;;11.60;96.40;;;;;;5006471;28;19984;-67
2021/12/31 09:10:42;;;;;;;;;;;11.60;96.60;;;;;;5006336;28;20100;-68
2021/12/31 09:13:08;;;;;;;;;;;11.70;96.40;;;;;;5005764;28;19945;-68
2021/12/31 09:15:34;;;;;;;;;;;11.60;96.60;;;;;;5005721;28;20144;-68
2021/12/31 09:18:00;;;;;;;;;;;11.80;96.30;;;;;;5006327;28;19912;-72
2021/12/31 09:20:27;;;;;;;;;;;11.80;96.30;;;;;;5005126;28;20116;-65
2021/12/31 09:22:53;;;;;;;;;;;11.80;96.20;;;;;;5006211;28;19912;-70
2021/12/31 09:25:19;;;;;;;;;;;11.90;96.00;;;;;;5004024;28;19937;-70
2021/12/31 09:27:44;;;;;;;;;;;11.90;95.90;;;;;;5005245;28;19973;-71
2021/12/31 09:30:10;;;;;;;;;;;11.90;95.80;;;;;;5006073;28;19952;-70
2021/12/31 09:32:36;;;;;;;;;;;12.00;95.60;;;;;;5005203;28;19906;-70
2021/12/31 09:35:02;;;;;;;;;;;12.00;95.40;;;;;;5005341;28;20008;-74
2021/12/31 09:37:28;;;;;;;;;;;12.10;95.30;;;;;;5004530;28;19980;-74
2021/12/31 09:39:54;;;;;;;;;;;12.10;95.00;;;;;;5003909;28;19906;-73
2021/12/31 09:42:19;;;;;;;;;;;12.20;95.20;;;;;;5004385;28;19905;-74
2021/12/31 09:44:48;;;;;;;;;;;12.30;94.80;;;;;;5003722;28;20196;-75
2021/12/31 09:47:15;;;;;;;;;;;12.40;94.80;;;;;;5004962;28;19905;-76
2021/12/31 09:49:41;;;;;;;;;;;12.50;94.40;;;;;;5004746;28;19972;-76
2021/12/31 09:52:11;;;;;;;;;;;12.60;93.90;;;;;;5004543;28;19912;-76
2021/12/31 09:54:41;;;;;;;;;;;12.70;93.50;;;;;;5003229;28;19912;-76
2021/12/31 09:57:17;;;;;;;;;;;12.80;93.60;;;;;;5003216;28;20155;-75
2021/12/31 09:59:43;;;;;;;;;;;13.00;92.60;;;;;;5004287;28;19985;-72
2021/12/31 10:02:09;;;;;;;;;;;13.10;92.50;;;;;;5005083;28;19906;-73
2021/12/31 10:04:55;;;;;;;;;;;13.30;92.10;;;;;;5004028;28;19916;-68
2021/12/31 10:07:21;;;;;;;;;;;13.40;91.70;;;;;;5005306;28;20192;-74
2021/12/31 10:10:07;;;;;;;;;;;13.60;91.40;;;;;;5003848;28;19981;-74
2021/12/31 10:12:43;;;;;;;;;;;13.70;91.40;;;;;;5004839;28;19906;-69
2021/12/31 10:15:09;;;;;;;;;;;14.00;90.50;;;;;;5003652;28;19955;-69
2021/12/31 10:17:35;;;;;;;;;;;14.10;90.70;;;;;;5004809;28;19937;-74
2021/12/31 10:20:01;;;;;;;;;;;14.20;89.60;;;;;;5005156;28;19914;-74
2021/12/31 10:22:26;;;;;;;;;;;14.50;88.80;;;;;;5005039;28;20208;-73
2021/12/31 10:24:52;;;;;;;;;;;14.70;87.80;;;;;;5004567;28;19910;-73
2021/12/31 10:27:20;;;;;;;;;;;14.80;86.70;;;;;;4987448;28;19963;-72
2021/12/31 10:30:05;;;;;;;;;;;15.10;85.90;;;;;;5003651;28;19906;-72
2021/12/31 10:32:32;;;;;;;;;;;15.10;85.70;;;;;;5003014;28;20168;-73
2021/12/31 10:35:20;;;;;;;;;;;15.40;84.90;;;;;;5004122;28;19906;-73
2021/12/31 10:38:01;;;;;;;;;;;15.60;84.00;;;;;;5002969;28;19945;-73
2021/12/31 10:40:43;;;;;;;;;;;16.00;81.60;;;;;;5004184;28;19912;-74
2021/12/31 10:43:12;;;;;;;;;;;16.50;79.50;;;;;;5002966;28;19973;-74
2021/12/31 10:45:38;;;;;;;;;;;17.50;73.50;;;;;;5003916;28;19909;-69
2021/12/31 10:48:08;;;;;;;;;;;18.50;70.80;;;;;;4999873;28;19909;-69
2021/12/31 10:50:35;;;;;;;;;;;20.00;61.60;;;;;;5004153;28;19906;-70
2021/12/31 10:53:09;;;;;;;;;;;20.90;58.50;;;;;;5000171;28;19948;-70
2021/12/31 10:55:39;;;;;;;;;;;21.70;55.80;;;;;;5001477;28;19909;-70
2021/12/31 10:58:10;;;;;;;;;;;22.20;52.50;;;;;;5003940;28;19972;-69
2021/12/31 11:00:38;;;;;;;;;;;22.50;52.10;;;;;;5003271;28;20193;-69
2021/12/31 11:03:04;;;;;;;;;;;22.70;50.50;;;;;;5003053;28;19941;-69
2021/12/31 11:05:30;;;;;;;;;;;21.90;51.40;;;;;;5002602;28;19917;-69
2021/12/31 11:07:59;;;;;;;;;;;21.40;53.30;;;;;;5002726;28;19913;-73
2021/12/31 11:10:25;;;;;;;;;;;21.10;54.10;;;;;;5002082;28;19913;-73
2021/12/31 11:12:51;;;;;;;;;;;20.60;55.50;;;;;;5002062;28;20236;-72
2021/12/31 11:15:17;;;;;;;;;;;21.30;54.20;;;;;;5001198;28;19968;-73
2021/12/31 11:17:43;;;;;;;;;;;21.00;54.70;;;;;;5002383;28;20104;-72
2021/12/31 11:20:09;;;;;;;;;;;20.70;55.80;;;;;;5002120;28;20009;-73
2021/12/31 11:22:35;;;;;;;;;;;20.60;56.00;;;;;;4982682;28;20027;-70
2021/12/31 11:25:26;;;;;;;;;;;20.40;56.70;;;;;;5007261;28;20365;-69
2021/12/31 11:27:53;;;;;;;;;;;19.80;58.10;;;;;;5001216;28;20078;-73
2021/12/31 11:30:25;;;;;;;;;;;19.90;57.40;;;;;;5002818;28;19905;-73
2021/12/31 11:32:55;;;;;;;;;;;19.70;58.20;;;;;;5002225;28;20104;-72
2021/12/31 11:36:04;;;;;;;;;;;19.30;59.80;;;;;;5002831;28;19905;-75
2021/12/31 11:38:30;;;;;;;;;;;19.20;61.00;;;;;;4980538;28;19905;-67
2021/12/31 11:41:18;;;;;;;;;;;18.80;62.10;;;;;;5002305;28;20149;-79
2021/12/31 11:43:45;;;;;;;;;;;18.60;62.30;;;;;;5006837;28;19917;-70
2021/12/31 11:48:49;;;;;;;;;;;17.70;65.80;;;;;;5002999;28;19905;-70
2021/12/31 11:51:34;;;;;;;;;;;17.40;67.70;;;;;;5000902;28;19916;-70
2021/12/31 11:54:00;;;;;;;;;;;17.30;69.10;;;;;;5003027;28;19932;-70
2021/12/31 11:56:43;;;;;;;;;;;17.20;70.00;;;;;;5001677;28;20205;-70
2021/12/31 12:01:34;;;;;;;;;;;17.40;68.80;;;;;;5001660;28;19969;-77
2021/12/31 12:04:18;;;;;;;;;;;17.40;68.90;;;;;;5002660;28;19912;-69
2021/12/31 12:06:54;;;;;;;;;;;17.60;68.50;;;;;;5002147;28;19910;-70
2021/12/31 12:09:20;;;;;;;;;;;18.10;66.60;;;;;;5002893;28;19906;-69
2021/12/31 12:12:05;;;;;;;;;;;18.10;65.90;;;;;;5000111;28;19910;-78
2021/12/31 12:14:36;;;;;;;;;;;18.20;65.70;;;;;;5001940;28;19988;-79
2021/12/31 12:17:03;;;;;;;;;;;18.40;63.90;;;;;;5015987;28;19991;-77
2021/12/31 12:19:47;;;;;;;;;;;18.90;62.90;;;;;;5001358;28;19920;-71
2021/12/31 12:22:37;;;;;;;;;;;19.20;61.10;;;;;;5001875;28;19910;-71
2021/12/31 12:25:08;;;;;;;;;;;19.40;60.50;;;;;;5000621;28;19917;-71
2021/12/31 12:27:34;;;;;;;;;;;20.90;56.00;;;;;;5002260;28;20271;-70
2021/12/31 12:30:05;;;;;;;;;;;21.20;54.90;;;;;;5002282;28;19909;-71
2021/12/31 12:32:38;;;;;;;;;;;21.60;52.50;;;;;;5001908;28;20050;-72
2021/12/31 12:35:27;;;;;;;;;;;22.20;52.10;;;;;;5001853;28;19909;-71
2021/12/31 12:37:57;;;;;;;;;;;22.70;50.70;;;;;;5000873;28;19909;-71
2021/12/31 12:40:41;;;;;;;;;;;23.10;48.90;;;;;;5002475;28;19949;-70
2021/12/31 12:43:14;;;;;;;;;;;22.90;49.10;;;;;;5001283;28;19916;-69
2021/12/31 12:45:41;;;;;;;;;;;22.00;50.60;;;;;;5001637;28;19916;-70
2021/12/31 12:48:07;;;;;;;;;;;21.30;52.40;;;;;;5002301;28;19914;-70
2021/12/31 12:50:33;;;;;;;;;;;20.50;53.90;;;;;;5001102;28;19945;-68
2021/12/31 12:52:59;;;;;;;;;;;19.40;56.90;;;;;;5001837;28;20821;-69
2021/12/31 12:55:26;;;;;;;;;;;19.10;59.90;;;;;;5002077;28;20086;-70
2021/12/31 12:57:53;;;;;;;;;;;18.60;62.50;;;;;;5000077;28;19917;-69
2021/12/31 13:00:19;;;;;;;;;;;18.20;65.20;;;;;;5003095;28;19906;-70
2021/12/31 13:02:45;;;;;;;;;;;18.00;65.80;;;;;;4988204;28;19952;-70
2021/12/31 13:05:14;;;;;;;;;;;17.90;66.90;;;;;;5005913;28;19977;-74
2021/12/31 13:07:52;;;;;;;;;;;17.80;66.30;;;;;;5004823;28;19906;-69
2021/12/31 13:10:24;;;;;;;;;;;17.40;68.10;;;;;;5004259;28;19913;-77
2021/12/31 13:12:50;;;;;;;;;;;16.90;70.70;;;;;;5006393;28;19906;-72
2021/12/31 13:15:16;;;;;;;;;;;16.50;72.10;;;;;;4987874;28;20255;-70
2021/12/31 13:18:05;;;;;;;;;;;16.20;74.30;;;;;;5005321;28;20120;-73
2021/12/31 13:20:32;;;;;;;;;;;16.10;75.00;;;;;;5004234;28;19906;-71
2021/12/31 13:22:59;;;;;;;;;;;15.80;76.90;;;;;;5003893;28;20196;-71
2021/12/31 13:25:46;;;;;;;;;;;15.80;77.50;;;;;;5005219;28;19917;-71
2021/12/31 13:28:15;;;;;;;;;;;15.70;79.30;;;;;;5005494;28;19905;-70
2021/12/31 13:30:51;;;;;;;;;;;15.70;78.30;;;;;;5005505;28;19929;-71
2021/12/31 13:33:44;;;;;;;;;;;15.80;77.80;;;;;;5005184;28;19951;-71
2021/12/31 13:36:19;;;;;;;;;;;15.80;78.20;;;;;;5000629;28;19913;-71
2021/12/31 13:39:12;;;;;;;;;;;15.60;79.00;;;;;;5005005;28;20209;-72
2021/12/31 13:41:51;;;;;;;;;;;15.40;80.10;;;;;;5005006;28;20268;-71
2021/12/31 13:44:40;;;;;;;;;;;15.30;80.90;;;;;;5004216;28;19914;-72
2021/12/31 13:47:16;;;;;;;;;;;15.10;81.40;;;;;;4998816;28;19921;-71
2021/12/31 13:49:56;;;;;;;;;;;15.00;83.10;;;;;;5002775;28;19944;-71
2021/12/31 13:52:29;;;;;;;;;;;14.90;82.70;;;;;;5001125;28;19905;-71
2021/12/31 13:54:59;;;;;;;;;;;15.00;82.90;;;;;;5019449;28;19977;-70
2021/12/31 13:57:30;;;;;;;;;;;14.90;83.90;;;;;;5005215;28;19992;-71
2021/12/31 13:59:56;;;;;;;;;;;14.90;83.70;;;;;;5004490;28;19973;-70
2021/12/31 14:02:26;;;;;;;;;;;14.80;84.00;;;;;;5003901;28;19906;-70
2021/12/31 14:04:58;;;;;;;;;;;14.80;83.70;;;;;;5004190;28;19956;-70
2021/12/31 14:07:43;;;;;;;;;;;14.70;84.60;;;;;;5004970;28;19906;-73
2021/12/31 14:10:11;;;;;;;;;;;14.60;85.20;;;;;;5003631;28;19909;-71
2021/12/31 14:12:52;;;;;;;;;;;14.70;85.00;;;;;;5003749;28;19912;-71
2021/12/31 14:15:19;;;;;;;;;;;14.60;85.20;;;;;;5004001;28;19916;-71
2021/12/31 14:17:47;;;;;;;;;;;14.50;85.70;;;;;;5004521;28;19977;-72
2021/12/31 14:20:13;;;;;;;;;;;14.40;86.50;;;;;;5003762;28;19913;-71
2021/12/31 14:22:39;;;;;;;;;;;14.30;87.50;;;;;;5003816;28;19905;-72
2021/12/31 14:25:06;;;;;;;;;;;14.20;88.00;;;;;;5004177;28;19917;-72
2021/12/31 14:27:32;;;;;;;;;;;14.10;88.30;;;;;;5004694;28;20262;-72